sensor_id;sensor_type;location;lat;lon;timestamp;P1;durP1;ratioP1;P2;durP2;ratioP2
56005;SDS011;41888;44.696;10.522;2023-11-19T00:01:31;7.60;;;2.55;;
56005;SDS011;41888;44.696;10.522;2023-11-19T00:03:57;5.50;;;2.92;;
56005;SDS011;41888;44.696;10.522;2023-11-19T00:06:24;4.03;;;2.50;;
56005;SDS011;41888;44.696;10.522;2023-11-19T00:08:50;4.90;;;2.67;;
56005;SDS011;41888;44.696;10.522;2023-11-19T00:11:16;4.88;;;2.58;;
56005;SDS011;41888;44.696;10.522;2023-11-19T00:13:43;4.65;;;2.47;;
56005;SDS011;41888;44.696;10.522;2023-11-19T00:16:09;5.97;;;2.10;;
56005;SDS011;41888;44.696;10.522;2023-11-19T00:18:35;8.10;;;2.58;;
56005;SDS011;41888;44.696;10.522;2023-11-19T00:21:02;6.03;;;2.65;;
56005;SDS011;41888;44.696;10.522;2023-11-19T00:23:28;7.30;;;2.70;;
56005;SDS011;41888;44.696;10.522;2023-11-19T00:25:54;6.90;;;2.30;;
56005;SDS011;41888;44.696;10.522;2023-11-19T00:28:20;6.05;;;2.60;;
56005;SDS011;41888;44.696;10.522;2023-11-19T00:30:47;7.45;;;2.38;;
56005;SDS011;41888;44.696;10.522;2023-11-19T00:33:13;4.57;;;3.13;;
56005;SDS011;41888;44.696;10.522;2023-11-19T00:35:39;5.43;;;2.58;;
56005;SDS011;41888;44.696;10.522;2023-11-19T00:38:05;5.55;;;2.38;;
56005;SDS011;41888;44.696;10.522;2023-11-19T00:40:32;4.43;;;2.28;;
56005;SDS011;41888;44.696;10.522;2023-11-19T00:42:58;7.22;;;2.70;;
56005;SDS011;41888;44.696;10.522;2023-11-19T00:45:24;7.80;;;2.75;;
56005;SDS011;41888;44.696;10.522;2023-11-19T00:47:50;5.05;;;3.15;;
56005;SDS011;41888;44.696;10.522;2023-11-19T00:50:16;5.68;;;3.28;;
56005;SDS011;41888;44.696;10.522;2023-11-19T00:52:42;6.20;;;3.13;;
56005;SDS011;41888;44.696;10.522;2023-11-19T00:55:09;6.90;;;2.80;;
56005;SDS011;41888;44.696;10.522;2023-11-19T00:57:36;5.97;;;2.75;;
56005;SDS011;41888;44.696;10.522;2023-11-19T01:00:03;9.50;;;3.13;;
56005;SDS011;41888;44.696;10.522;2023-11-19T01:02:49;6.10;;;2.63;;
56005;SDS011;41888;44.696;10.522;2023-11-19T01:05:15;5.97;;;2.58;;
56005;SDS011;41888;44.696;10.522;2023-11-19T01:07:41;5.05;;;2.75;;
56005;SDS011;41888;44.696;10.522;2023-11-19T01:10:08;3.92;;;2.33;;
56005;SDS011;41888;44.696;10.522;2023-11-19T01:12:35;5.65;;;2.40;;
56005;SDS011;41888;44.696;10.522;2023-11-19T01:15:01;5.07;;;2.58;;
56005;SDS011;41888;44.696;10.522;2023-11-19T01:17:27;4.03;;;2.30;;
56005;SDS011;41888;44.696;10.522;2023-11-19T01:19:56;10.07;;;2.75;;
56005;SDS011;41888;44.696;10.522;2023-11-19T01:22:22;6.68;;;2.40;;
56005;SDS011;41888;44.696;10.522;2023-11-19T01:24:48;4.07;;;2.25;;
56005;SDS011;41888;44.696;10.522;2023-11-19T01:27:15;4.20;;;2.28;;
56005;SDS011;41888;44.696;10.522;2023-11-19T01:29:41;4.80;;;2.00;;
56005;SDS011;41888;44.696;10.522;2023-11-19T01:32:08;4.75;;;2.42;;
56005;SDS011;41888;44.696;10.522;2023-11-19T01:34:34;4.53;;;2.42;;
56005;SDS011;41888;44.696;10.522;2023-11-19T01:37:01;4.50;;;2.40;;
56005;SDS011;41888;44.696;10.522;2023-11-19T01:39:27;3.83;;;2.05;;
56005;SDS011;41888;44.696;10.522;2023-11-19T01:41:53;5.55;;;2.53;;
56005;SDS011;41888;44.696;10.522;2023-11-19T01:44:19;5.00;;;2.83;;
56005;SDS011;41888;44.696;10.522;2023-11-19T01:46:45;3.75;;;2.35;;
56005;SDS011;41888;44.696;10.522;2023-11-19T01:49:14;5.15;;;2.28;;
56005;SDS011;41888;44.696;10.522;2023-11-19T01:51:40;4.68;;;2.10;;
56005;SDS011;41888;44.696;10.522;2023-11-19T01:54:07;6.28;;;2.83;;
56005;SDS011;41888;44.696;10.522;2023-11-19T01:56:34;5.63;;;1.90;;
56005;SDS011;41888;44.696;10.522;2023-11-19T01:59:02;3.72;;;2.22;;
56005;SDS011;41888;44.696;10.522;2023-11-19T02:01:29;5.95;;;2.38;;
56005;SDS011;41888;44.696;10.522;2023-11-19T02:03:57;3.58;;;2.20;;
56005;SDS011;41888;44.696;10.522;2023-11-19T02:06:23;4.35;;;2.40;;
56005;SDS011;41888;44.696;10.522;2023-11-19T02:08:52;7.35;;;1.98;;
56005;SDS011;41888;44.696;10.522;2023-11-19T02:11:19;7.07;;;2.60;;
56005;SDS011;41888;44.696;10.522;2023-11-19T02:13:45;3.47;;;2.40;;
56005;SDS011;41888;44.696;10.522;2023-11-19T02:16:11;4.60;;;2.38;;
56005;SDS011;41888;44.696;10.522;2023-11-19T02:18:37;4.85;;;1.77;;
56005;SDS011;41888;44.696;10.522;2023-11-19T02:21:04;5.55;;;2.10;;
56005;SDS011;41888;44.696;10.522;2023-11-19T02:23:30;5.20;;;2.38;;
56005;SDS011;41888;44.696;10.522;2023-11-19T02:28:47;3.25;;;1.88;;
56005;SDS011;41888;44.696;10.522;2023-11-19T02:31:13;4.00;;;1.88;;
56005;SDS011;41888;44.696;10.522;2023-11-19T02:33:40;3.28;;;1.88;;
56005;SDS011;41888;44.696;10.522;2023-11-19T02:36:06;3.95;;;1.88;;
56005;SDS011;41888;44.696;10.522;2023-11-19T02:38:33;3.13;;;1.70;;
56005;SDS011;41888;44.696;10.522;2023-11-19T02:41:03;4.72;;;1.83;;
56005;SDS011;41888;44.696;10.522;2023-11-19T02:43:34;3.95;;;1.92;;
56005;SDS011;41888;44.696;10.522;2023-11-19T02:46:02;2.78;;;1.77;;
56005;SDS011;41888;44.696;10.522;2023-11-19T02:48:33;3.65;;;1.73;;
56005;SDS011;41888;44.696;10.522;2023-11-19T02:51:03;2.92;;;1.60;;
56005;SDS011;41888;44.696;10.522;2023-11-19T02:53:30;3.05;;;2.00;;
56005;SDS011;41888;44.696;10.522;2023-11-19T02:55:56;2.95;;;1.60;;
56005;SDS011;41888;44.696;10.522;2023-11-19T02:58:42;4.53;;;1.97;;
56005;SDS011;41888;44.696;10.522;2023-11-19T03:01:10;4.35;;;1.77;;
56005;SDS011;41888;44.696;10.522;2023-11-19T03:03:47;3.80;;;1.70;;
56005;SDS011;41888;44.696;10.522;2023-11-19T03:06:19;2.42;;;1.55;;
56005;SDS011;41888;44.696;10.522;2023-11-19T03:08:46;4.68;;;1.50;;
56005;SDS011;41888;44.696;10.522;2023-11-19T03:11:13;3.50;;;2.10;;
56005;SDS011;41888;44.696;10.522;2023-11-19T03:13:39;3.38;;;1.50;;
56005;SDS011;41888;44.696;10.522;2023-11-19T03:16:06;6.07;;;2.05;;
56005;SDS011;41888;44.696;10.522;2023-11-19T03:18:33;4.15;;;1.70;;
56005;SDS011;41888;44.696;10.522;2023-11-19T03:20:59;4.13;;;1.50;;
56005;SDS011;41888;44.696;10.522;2023-11-19T03:23:25;1.70;;;1.17;;
56005;SDS011;41888;44.696;10.522;2023-11-19T03:25:54;3.30;;;2.05;;
56005;SDS011;41888;44.696;10.522;2023-11-19T03:28:22;4.47;;;1.30;;
56005;SDS011;41888;44.696;10.522;2023-11-19T03:30:48;3.17;;;1.63;;
56005;SDS011;41888;44.696;10.522;2023-11-19T03:33:14;2.42;;;1.42;;
56005;SDS011;41888;44.696;10.522;2023-11-19T03:35:40;4.65;;;1.20;;
56005;SDS011;41888;44.696;10.522;2023-11-19T03:38:06;2.78;;;1.40;;
56005;SDS011;41888;44.696;10.522;2023-11-19T03:40:33;3.97;;;1.63;;
56005;SDS011;41888;44.696;10.522;2023-11-19T03:42:59;3.63;;;1.40;;
56005;SDS011;41888;44.696;10.522;2023-11-19T03:45:25;2.65;;;1.20;;
56005;SDS011;41888;44.696;10.522;2023-11-19T03:47:51;4.45;;;1.40;;
56005;SDS011;41888;44.696;10.522;2023-11-19T03:50:17;6.15;;;1.30;;
56005;SDS011;41888;44.696;10.522;2023-11-19T03:52:45;3.30;;;1.30;;
56005;SDS011;41888;44.696;10.522;2023-11-19T03:55:12;2.95;;;1.23;;
56005;SDS011;41888;44.696;10.522;2023-11-19T03:57:38;2.50;;;1.70;;
56005;SDS011;41888;44.696;10.522;2023-11-19T04:00:05;3.13;;;1.80;;
56005;SDS011;41888;44.696;10.522;2023-11-19T04:02:38;3.03;;;1.15;;
56005;SDS011;41888;44.696;10.522;2023-11-19T04:05:04;3.85;;;1.58;;
56005;SDS011;41888;44.696;10.522;2023-11-19T04:07:31;1.88;;;1.13;;
56005;SDS011;41888;44.696;10.522;2023-11-19T04:09:58;4.43;;;0.95;;
56005;SDS011;41888;44.696;10.522;2023-11-19T04:12:24;2.30;;;1.23;;
56005;SDS011;41888;44.696;10.522;2023-11-19T04:14:50;6.80;;;1.50;;
56005;SDS011;41888;44.696;10.522;2023-11-19T04:17:17;2.72;;;1.25;;
56005;SDS011;41888;44.696;10.522;2023-11-19T04:19:43;3.03;;;1.48;;
56005;SDS011;41888;44.696;10.522;2023-11-19T04:22:09;2.47;;;1.25;;
56005;SDS011;41888;44.696;10.522;2023-11-19T04:24:36;2.85;;;1.30;;
56005;SDS011;41888;44.696;10.522;2023-11-19T04:27:02;2.75;;;1.30;;
56005;SDS011;41888;44.696;10.522;2023-11-19T04:29:29;4.03;;;1.75;;
56005;SDS011;41888;44.696;10.522;2023-11-19T04:31:56;4.00;;;1.40;;
56005;SDS011;41888;44.696;10.522;2023-11-19T04:34:22;1.88;;;1.20;;
56005;SDS011;41888;44.696;10.522;2023-11-19T04:36:49;1.80;;;1.30;;
56005;SDS011;41888;44.696;10.522;2023-11-19T04:39:15;5.90;;;1.40;;
56005;SDS011;41888;44.696;10.522;2023-11-19T04:41:49;3.10;;;1.45;;
56005;SDS011;41888;44.696;10.522;2023-11-19T04:44:19;4.72;;;1.50;;
56005;SDS011;41888;44.696;10.522;2023-11-19T04:46:45;3.35;;;1.02;;
56005;SDS011;41888;44.696;10.522;2023-11-19T04:49:12;4.57;;;1.83;;
56005;SDS011;41888;44.696;10.522;2023-11-19T04:51:43;2.85;;;1.48;;
56005;SDS011;41888;44.696;10.522;2023-11-19T04:54:12;2.45;;;1.20;;
56005;SDS011;41888;44.696;10.522;2023-11-19T04:56:39;3.38;;;1.40;;
56005;SDS011;41888;44.696;10.522;2023-11-19T04:59:06;2.13;;;1.20;;
56005;SDS011;41888;44.696;10.522;2023-11-19T05:01:33;2.17;;;0.93;;
56005;SDS011;41888;44.696;10.522;2023-11-19T05:04:00;1.95;;;1.00;;
56005;SDS011;41888;44.696;10.522;2023-11-19T05:06:27;7.43;;;1.45;;
56005;SDS011;41888;44.696;10.522;2023-11-19T05:08:54;2.70;;;1.20;;
56005;SDS011;41888;44.696;10.522;2023-11-19T05:11:21;3.53;;;1.30;;
56005;SDS011;41888;44.696;10.522;2023-11-19T05:13:47;3.25;;;1.30;;
56005;SDS011;41888;44.696;10.522;2023-11-19T05:16:15;2.22;;;1.25;;
56005;SDS011;41888;44.696;10.522;2023-11-19T05:18:42;1.67;;;1.05;;
56005;SDS011;41888;44.696;10.522;2023-11-19T05:21:09;6.20;;;1.17;;
56005;SDS011;41888;44.696;10.522;2023-11-19T05:23:35;2.80;;;1.38;;
56005;SDS011;41888;44.696;10.522;2023-11-19T05:26:01;1.67;;;1.00;;
56005;SDS011;41888;44.696;10.522;2023-11-19T05:28:28;3.25;;;1.42;;
56005;SDS011;41888;44.696;10.522;2023-11-19T05:30:54;1.90;;;1.10;;
56005;SDS011;41888;44.696;10.522;2023-11-19T05:33:21;2.92;;;1.20;;
56005;SDS011;41888;44.696;10.522;2023-11-19T05:35:47;1.60;;;0.90;;
56005;SDS011;41888;44.696;10.522;2023-11-19T05:38:13;1.50;;;1.00;;
56005;SDS011;41888;44.696;10.522;2023-11-19T05:40:40;2.63;;;1.30;;
56005;SDS011;41888;44.696;10.522;2023-11-19T05:43:07;2.67;;;1.00;;
56005;SDS011;41888;44.696;10.522;2023-11-19T05:45:33;2.03;;;1.08;;
56005;SDS011;41888;44.696;10.522;2023-11-19T05:47:59;2.92;;;1.30;;
56005;SDS011;41888;44.696;10.522;2023-11-19T05:50:25;3.92;;;1.48;;
56005;SDS011;41888;44.696;10.522;2023-11-19T05:52:51;1.73;;;1.17;;
56005;SDS011;41888;44.696;10.522;2023-11-19T05:55:18;3.05;;;1.30;;
56005;SDS011;41888;44.696;10.522;2023-11-19T05:57:45;4.97;;;1.40;;
56005;SDS011;41888;44.696;10.522;2023-11-19T06:00:11;2.30;;;1.23;;
56005;SDS011;41888;44.696;10.522;2023-11-19T06:02:38;2.20;;;0.98;;
56005;SDS011;41888;44.696;10.522;2023-11-19T06:05:05;3.03;;;1.17;;
56005;SDS011;41888;44.696;10.522;2023-11-19T06:07:34;2.10;;;1.73;;
56005;SDS011;41888;44.696;10.522;2023-11-19T06:10:01;3.45;;;1.10;;
56005;SDS011;41888;44.696;10.522;2023-11-19T06:12:30;3.22;;;1.25;;
56005;SDS011;41888;44.696;10.522;2023-11-19T06:14:57;3.88;;;1.63;;
56005;SDS011;41888;44.696;10.522;2023-11-19T06:17:23;2.00;;;1.05;;
56005;SDS011;41888;44.696;10.522;2023-11-19T06:19:49;2.58;;;1.40;;
56005;SDS011;41888;44.696;10.522;2023-11-19T06:22:16;6.38;;;2.47;;
56005;SDS011;41888;44.696;10.522;2023-11-19T06:24:42;4.22;;;1.60;;
56005;SDS011;41888;44.696;10.522;2023-11-19T06:27:08;6.47;;;1.80;;
56005;SDS011;41888;44.696;10.522;2023-11-19T06:29:34;4.78;;;1.67;;
56005;SDS011;41888;44.696;10.522;2023-11-19T06:32:01;3.78;;;2.08;;
56005;SDS011;41888;44.696;10.522;2023-11-19T06:34:27;4.35;;;1.95;;
56005;SDS011;41888;44.696;10.522;2023-11-19T06:36:53;2.78;;;1.42;;
56005;SDS011;41888;44.696;10.522;2023-11-19T06:39:20;5.20;;;1.73;;
56005;SDS011;41888;44.696;10.522;2023-11-19T06:41:46;2.55;;;1.45;;
56005;SDS011;41888;44.696;10.522;2023-11-19T06:44:12;4.72;;;1.50;;
56005;SDS011;41888;44.696;10.522;2023-11-19T06:46:39;3.72;;;1.50;;
56005;SDS011;41888;44.696;10.522;2023-11-19T06:49:05;4.43;;;1.75;;
56005;SDS011;41888;44.696;10.522;2023-11-19T06:51:33;2.85;;;1.20;;
56005;SDS011;41888;44.696;10.522;2023-11-19T06:53:59;6.40;;;1.50;;
56005;SDS011;41888;44.696;10.522;2023-11-19T06:56:26;5.65;;;1.30;;
56005;SDS011;41888;44.696;10.522;2023-11-19T06:58:52;2.03;;;0.95;;
56005;SDS011;41888;44.696;10.522;2023-11-19T07:01:19;1.85;;;1.15;;
56005;SDS011;41888;44.696;10.522;2023-11-19T07:03:46;5.28;;;1.45;;
56005;SDS011;41888;44.696;10.522;2023-11-19T07:06:13;2.92;;;1.13;;
56005;SDS011;41888;44.696;10.522;2023-11-19T07:08:40;3.38;;;1.42;;
56005;SDS011;41888;44.696;10.522;2023-11-19T07:11:10;3.05;;;1.20;;
56005;SDS011;41888;44.696;10.522;2023-11-19T07:13:37;2.30;;;1.13;;
56005;SDS011;41888;44.696;10.522;2023-11-19T07:16:03;2.47;;;1.10;;
56005;SDS011;41888;44.696;10.522;2023-11-19T07:18:30;3.08;;;1.10;;
56005;SDS011;41888;44.696;10.522;2023-11-19T07:20:57;2.53;;;1.02;;
56005;SDS011;41888;44.696;10.522;2023-11-19T07:23:24;2.10;;;1.33;;
56005;SDS011;41888;44.696;10.522;2023-11-19T07:25:51;3.22;;;1.35;;
56005;SDS011;41888;44.696;10.522;2023-11-19T07:28:18;2.88;;;1.25;;
56005;SDS011;41888;44.696;10.522;2023-11-19T07:30:44;3.55;;;1.67;;
56005;SDS011;41888;44.696;10.522;2023-11-19T07:33:11;3.13;;;1.50;;
56005;SDS011;41888;44.696;10.522;2023-11-19T07:35:38;4.07;;;1.80;;
56005;SDS011;41888;44.696;10.522;2023-11-19T07:38:07;4.00;;;1.80;;
56005;SDS011;41888;44.696;10.522;2023-11-19T07:40:33;4.22;;;1.88;;
56005;SDS011;41888;44.696;10.522;2023-11-19T07:42:59;7.32;;;1.65;;
56005;SDS011;41888;44.696;10.522;2023-11-19T07:45:26;4.75;;;2.08;;
56005;SDS011;41888;44.696;10.522;2023-11-19T07:47:52;4.65;;;2.17;;
56005;SDS011;41888;44.696;10.522;2023-11-19T07:50:19;4.68;;;1.98;;
56005;SDS011;41888;44.696;10.522;2023-11-19T07:52:45;6.97;;;1.98;;
56005;SDS011;41888;44.696;10.522;2023-11-19T07:55:12;5.45;;;2.05;;
56005;SDS011;41888;44.696;10.522;2023-11-19T07:57:38;8.88;;;3.42;;
56005;SDS011;41888;44.696;10.522;2023-11-19T08:00:04;4.18;;;1.90;;
56005;SDS011;41888;44.696;10.522;2023-11-19T08:02:31;3.63;;;1.98;;
56005;SDS011;41888;44.696;10.522;2023-11-19T08:04:58;6.85;;;1.70;;
56005;SDS011;41888;44.696;10.522;2023-11-19T08:07:24;3.05;;;1.40;;
56005;SDS011;41888;44.696;10.522;2023-11-19T08:09:50;4.78;;;2.22;;
56005;SDS011;41888;44.696;10.522;2023-11-19T08:12:16;4.10;;;1.98;;
56005;SDS011;41888;44.696;10.522;2023-11-19T08:14:42;7.60;;;2.30;;
56005;SDS011;41888;44.696;10.522;2023-11-19T08:17:11;6.03;;;2.33;;
56005;SDS011;41888;44.696;10.522;2023-11-19T08:19:37;4.88;;;1.83;;
56005;SDS011;41888;44.696;10.522;2023-11-19T08:22:04;3.03;;;1.25;;
56005;SDS011;41888;44.696;10.522;2023-11-19T08:24:30;3.58;;;1.35;;
56005;SDS011;41888;44.696;10.522;2023-11-19T08:26:56;2.83;;;1.52;;
56005;SDS011;41888;44.696;10.522;2023-11-19T08:29:22;5.80;;;1.40;;
56005;SDS011;41888;44.696;10.522;2023-11-19T08:31:48;2.67;;;1.20;;
56005;SDS011;41888;44.696;10.522;2023-11-19T08:34:14;2.70;;;1.48;;
56005;SDS011;41888;44.696;10.522;2023-11-19T08:36:41;3.70;;;1.40;;
56005;SDS011;41888;44.696;10.522;2023-11-19T08:39:07;4.10;;;1.40;;
56005;SDS011;41888;44.696;10.522;2023-11-19T08:41:33;3.35;;;1.60;;
56005;SDS011;41888;44.696;10.522;2023-11-19T08:43:59;3.70;;;1.45;;
56005;SDS011;41888;44.696;10.522;2023-11-19T08:46:26;2.20;;;1.70;;
56005;SDS011;41888;44.696;10.522;2023-11-19T08:48:52;3.10;;;1.77;;
56005;SDS011;41888;44.696;10.522;2023-11-19T08:51:22;2.40;;;1.45;;
56005;SDS011;41888;44.696;10.522;2023-11-19T08:53:50;2.78;;;1.60;;
56005;SDS011;41888;44.696;10.522;2023-11-19T08:56:16;3.92;;;1.75;;
56005;SDS011;41888;44.696;10.522;2023-11-19T08:58:42;3.42;;;1.77;;
56005;SDS011;41888;44.696;10.522;2023-11-19T09:01:08;2.80;;;1.30;;
56005;SDS011;41888;44.696;10.522;2023-11-19T09:03:34;7.28;;;2.13;;
56005;SDS011;41888;44.696;10.522;2023-11-19T09:06:01;5.00;;;1.90;;
56005;SDS011;41888;44.696;10.522;2023-11-19T09:08:28;4.47;;;1.83;;
56005;SDS011;41888;44.696;10.522;2023-11-19T09:10:54;3.65;;;2.20;;
56005;SDS011;41888;44.696;10.522;2023-11-19T09:13:21;2.67;;;1.80;;
56005;SDS011;41888;44.696;10.522;2023-11-19T09:15:48;3.05;;;1.80;;
56005;SDS011;41888;44.696;10.522;2023-11-19T09:18:14;3.42;;;1.52;;
56005;SDS011;41888;44.696;10.522;2023-11-19T09:20:40;2.78;;;1.70;;
56005;SDS011;41888;44.696;10.522;2023-11-19T09:23:06;4.32;;;2.00;;
56005;SDS011;41888;44.696;10.522;2023-11-19T09:25:33;4.53;;;2.40;;
56005;SDS011;41888;44.696;10.522;2023-11-19T09:28:00;3.15;;;2.17;;
56005;SDS011;41888;44.696;10.522;2023-11-19T09:30:26;3.50;;;2.50;;
56005;SDS011;41888;44.696;10.522;2023-11-19T09:32:52;3.60;;;2.33;;
56005;SDS011;41888;44.696;10.522;2023-11-19T09:35:19;5.05;;;2.60;;
56005;SDS011;41888;44.696;10.522;2023-11-19T09:37:45;4.63;;;2.90;;
56005;SDS011;41888;44.696;10.522;2023-11-19T09:40:11;8.00;;;3.20;;
56005;SDS011;41888;44.696;10.522;2023-11-19T09:42:47;7.55;;;3.72;;
56005;SDS011;41888;44.696;10.522;2023-11-19T09:45:14;7.00;;;4.03;;
56005;SDS011;41888;44.696;10.522;2023-11-19T09:47:45;9.52;;;4.82;;
56005;SDS011;41888;44.696;10.522;2023-11-19T09:50:16;7.97;;;4.63;;
56005;SDS011;41888;44.696;10.522;2023-11-19T09:52:43;7.40;;;4.45;;
56005;SDS011;41888;44.696;10.522;2023-11-19T09:55:10;6.50;;;4.38;;
56005;SDS011;41888;44.696;10.522;2023-11-19T09:57:38;7.65;;;4.90;;
56005;SDS011;41888;44.696;10.522;2023-11-19T10:00:05;8.65;;;4.57;;
56005;SDS011;41888;44.696;10.522;2023-11-19T10:02:33;7.47;;;5.15;;
56005;SDS011;41888;44.696;10.522;2023-11-19T10:05:02;9.35;;;5.38;;
56005;SDS011;41888;44.696;10.522;2023-11-19T10:07:32;7.72;;;5.03;;
56005;SDS011;41888;44.696;10.522;2023-11-19T10:10:02;7.20;;;5.43;;
56005;SDS011;41888;44.696;10.522;2023-11-19T10:12:32;9.82;;;5.30;;
56005;SDS011;41888;44.696;10.522;2023-11-19T10:14:59;10.55;;;5.40;;
56005;SDS011;41888;44.696;10.522;2023-11-19T10:17:28;7.53;;;4.80;;
56005;SDS011;41888;44.696;10.522;2023-11-19T10:19:58;8.07;;;5.43;;
56005;SDS011;41888;44.696;10.522;2023-11-19T10:22:24;8.10;;;4.90;;
56005;SDS011;41888;44.696;10.522;2023-11-19T10:24:52;7.75;;;5.10;;
56005;SDS011;41888;44.696;10.522;2023-11-19T10:27:18;8.55;;;5.22;;
56005;SDS011;41888;44.696;10.522;2023-11-19T10:29:45;8.40;;;5.10;;
56005;SDS011;41888;44.696;10.522;2023-11-19T10:32:12;6.40;;;4.45;;
56005;SDS011;41888;44.696;10.522;2023-11-19T10:34:40;9.43;;;5.22;;
56005;SDS011;41888;44.696;10.522;2023-11-19T10:37:07;8.20;;;5.60;;
56005;SDS011;41888;44.696;10.522;2023-11-19T10:39:52;9.27;;;5.18;;
56005;SDS011;41888;44.696;10.522;2023-11-19T10:42:19;12.68;;;6.45;;
56005;SDS011;41888;44.696;10.522;2023-11-19T10:44:46;11.27;;;6.53;;
56005;SDS011;41888;44.696;10.522;2023-11-19T10:47:14;9.57;;;6.68;;
56005;SDS011;41888;44.696;10.522;2023-11-19T10:49:43;10.02;;;5.85;;
56005;SDS011;41888;44.696;10.522;2023-11-19T10:52:11;8.45;;;6.00;;
56005;SDS011;41888;44.696;10.522;2023-11-19T10:54:39;7.60;;;5.75;;
56005;SDS011;41888;44.696;10.522;2023-11-19T10:57:09;10.32;;;6.30;;
56005;SDS011;41888;44.696;10.522;2023-11-19T10:59:40;7.90;;;5.38;;
56005;SDS011;41888;44.696;10.522;2023-11-19T11:02:08;9.57;;;6.25;;
56005;SDS011;41888;44.696;10.522;2023-11-19T11:04:39;8.15;;;5.60;;
56005;SDS011;41888;44.696;10.522;2023-11-19T11:07:07;8.52;;;5.57;;
56005;SDS011;41888;44.696;10.522;2023-11-19T11:09:35;12.98;;;6.78;;
56005;SDS011;41888;44.696;10.522;2023-11-19T11:12:01;11.65;;;6.13;;
56005;SDS011;41888;44.696;10.522;2023-11-19T11:14:28;9.07;;;5.30;;
56005;SDS011;41888;44.696;10.522;2023-11-19T11:16:55;9.32;;;5.40;;
56005;SDS011;41888;44.696;10.522;2023-11-19T11:19:23;10.77;;;6.13;;
56005;SDS011;41888;44.696;10.522;2023-11-19T11:21:53;10.60;;;6.00;;
56005;SDS011;41888;44.696;10.522;2023-11-19T11:27:06;10.80;;;5.88;;
56005;SDS011;41888;44.696;10.522;2023-11-19T11:32:33;9.63;;;4.85;;
56005;SDS011;41888;44.696;10.522;2023-11-19T11:35:24;10.73;;;5.37;;
56005;SDS011;41888;44.696;10.522;2023-11-19T11:38:08;8.95;;;5.07;;
56005;SDS011;41888;44.696;10.522;2023-11-19T11:40:35;7.85;;;4.90;;
56005;SDS011;41888;44.696;10.522;2023-11-19T11:43:02;10.68;;;5.10;;
56005;SDS011;41888;44.696;10.522;2023-11-19T11:45:36;8.27;;;4.95;;
56005;SDS011;41888;44.696;10.522;2023-11-19T11:50:30;9.00;;;5.95;;
56005;SDS011;41888;44.696;10.522;2023-11-19T11:58:18;6.93;;;4.30;;
56005;SDS011;41888;44.696;10.522;2023-11-19T12:00:45;8.23;;;3.95;;
56005;SDS011;41888;44.696;10.522;2023-11-19T12:03:13;7.45;;;3.97;;
56005;SDS011;41888;44.696;10.522;2023-11-19T12:05:40;6.95;;;4.47;;
56005;SDS011;41888;44.696;10.522;2023-11-19T12:08:10;8.07;;;4.40;;
56005;SDS011;41888;44.696;10.522;2023-11-19T12:10:52;7.93;;;4.80;;
56005;SDS011;41888;44.696;10.522;2023-11-19T12:13:23;6.85;;;3.88;;
56005;SDS011;41888;44.696;10.522;2023-11-19T12:18:29;8.98;;;4.00;;
56005;SDS011;41888;44.696;10.522;2023-11-19T12:20:57;6.10;;;3.47;;
56005;SDS011;41888;44.696;10.522;2023-11-19T12:23:30;8.45;;;5.40;;
56005;SDS011;41888;44.696;10.522;2023-11-19T12:25:57;9.57;;;4.90;;
56005;SDS011;41888;44.696;10.522;2023-11-19T12:28:24;7.15;;;4.25;;
56005;SDS011;41888;44.696;10.522;2023-11-19T12:30:52;10.43;;;4.82;;
56005;SDS011;41888;44.696;10.522;2023-11-19T12:33:19;8.70;;;5.40;;
56005;SDS011;41888;44.696;10.522;2023-11-19T12:35:46;9.63;;;4.97;;
56005;SDS011;41888;44.696;10.522;2023-11-19T12:38:19;10.23;;;5.72;;
56005;SDS011;41888;44.696;10.522;2023-11-19T12:40:46;12.05;;;6.57;;
56005;SDS011;41888;44.696;10.522;2023-11-19T12:43:27;10.25;;;6.00;;
56005;SDS011;41888;44.696;10.522;2023-11-19T12:45:53;11.38;;;6.68;;
56005;SDS011;41888;44.696;10.522;2023-11-19T12:48:19;8.63;;;5.25;;
56005;SDS011;41888;44.696;10.522;2023-11-19T12:50:56;12.38;;;6.35;;
56005;SDS011;41888;44.696;10.522;2023-11-19T12:53:23;12.73;;;6.45;;
56005;SDS011;41888;44.696;10.522;2023-11-19T12:55:51;12.80;;;6.45;;
56005;SDS011;41888;44.696;10.522;2023-11-19T12:58:33;9.60;;;6.22;;
56005;SDS011;41888;44.696;10.522;2023-11-19T13:03:34;29.40;;;26.35;;
56005;SDS011;41888;44.696;10.522;2023-11-19T13:08:48;5.70;;;3.70;;
56005;SDS011;41888;44.696;10.522;2023-11-19T13:14:17;7.65;;;4.72;;
56005;SDS011;41888;44.696;10.522;2023-11-19T13:16:44;8.13;;;3.72;;
56005;SDS011;41888;44.696;10.522;2023-11-19T13:19:11;6.35;;;3.10;;
56005;SDS011;41888;44.696;10.522;2023-11-19T13:21:38;4.50;;;2.47;;
56005;SDS011;41888;44.696;10.522;2023-11-19T13:24:08;8.68;;;3.95;;
56005;SDS011;41888;44.696;10.522;2023-11-19T13:26:34;12.40;;;5.47;;
56005;SDS011;41888;44.696;10.522;2023-11-19T13:29:01;10.88;;;5.72;;
